PHOENIX SKY HARBOR INTL

KPHX (PHX)
Phoenix, Arizona
Towered

Vatsim Metar:
KPHX 211051Z 11005KT 10SM CLR 21/02 A2977 RMK AO2 SLP064 T02110017

No ATC Online

Traffic

Inbound:
Ident
Type
Name
ETA
Phase
AAL105
B738/L
William Hanna KDFW
11:15 Z
Cruse
SWA762
B733/Z
Felipi Cazado SBCY
Boarding

Outbound:
None